createdAt,value
2023-04-29T00:01:48.879Z,99858.31
2023-04-29T00:06:51.084Z,99853.06
2023-04-29T00:11:51.929Z,99850.53
2023-04-29T00:16:52.802Z,99849.69
2023-04-29T00:21:55.540Z,99846.00
2023-04-29T00:26:56.239Z,99837.09
2023-04-29T00:31:56.997Z,99831.81
2023-04-29T00:36:58.950Z,99834.47
2023-04-29T00:41:59.687Z,99834.34
2023-04-29T00:47:00.730Z,99822.97
2023-04-29T00:52:02.993Z,99830.91
2023-04-29T00:57:06.722Z,99831.13
2023-04-29T01:02:07.557Z,99831.81
2023-04-29T01:07:16.978Z,99839.63
2023-04-29T01:12:23.357Z,99831.88
2023-04-29T01:17:26.944Z,99825.97
2023-04-29T01:22:29.724Z,99827.66
2023-04-29T01:27:37.769Z,99830.13
2023-04-29T01:32:54.839Z,99827.66
2023-04-29T01:38:09.633Z,99832.91
2023-04-29T01:43:15.463Z,99841.66
2023-04-29T01:48:20.145Z,99857.28
2023-04-29T01:53:20.872Z,99856.59
2023-04-29T01:58:22.965Z,99856.81
2023-04-29T02:03:40.217Z,99858.47
2023-04-29T02:08:45.210Z,99867.13
2023-04-29T02:13:47.370Z,99868.06
2023-04-29T02:18:49.014Z,99888.09
2023-04-29T02:23:50.373Z,99880.25
2023-04-29T02:28:52.577Z,99870.69
2023-04-29T02:33:55.597Z,99862.97
2023-04-29T02:38:56.353Z,99851.94
2023-04-29T02:44:00.445Z,99852.69
2023-04-29T02:49:01.988Z,99857.13
2023-04-29T02:54:02.939Z,99850.00
2023-04-29T02:59:04.950Z,99855.19
2023-04-29T03:04:06.364Z,99863.09
2023-04-29T03:09:07.355Z,99854.22
2023-04-29T03:14:09.353Z,99841.94
2023-04-29T03:19:12.031Z,99833.16
2023-04-29T03:24:12.661Z,99838.44
2023-04-29T03:29:14.723Z,99837.44
2023-04-29T03:34:15.651Z,99831.47
2023-04-29T03:39:22.998Z,99834.81
2023-04-29T03:44:25.147Z,99831.13
2023-04-29T03:49:26.369Z,99834.63
2023-04-29T03:54:27.228Z,99829.22
2023-04-29T03:59:29.714Z,99825.81
2023-04-29T04:04:30.567Z,99827.53
2023-04-29T04:09:33.574Z,99833.56
2023-04-29T04:14:35.720Z,99836.97
2023-04-29T04:19:36.932Z,99839.38
2023-04-29T04:24:40.828Z,99833.19
2023-04-29T04:29:42.883Z,99841.63
2023-04-29T04:34:49.339Z,99836.16
2023-04-29T04:39:50.382Z,99845.56
2023-04-29T04:44:54.186Z,99848.25
2023-04-29T04:50:07.298Z,99854.78
2023-04-29T04:55:09.303Z,99856.66
2023-04-29T05:00:14.177Z,99849.63
2023-04-29T05:05:14.952Z,99859.97
2023-04-29T05:10:18.767Z,99859.16
2023-04-29T05:15:27.410Z,99866.88
2023-04-29T05:20:30.970Z,99866.94
2023-04-29T05:25:33.890Z,99863.41
2023-04-29T05:30:37.777Z,99871.25
2023-04-29T05:35:39.443Z,99877.94
2023-04-29T05:40:40.536Z,99874.72
2023-04-29T05:45:56.816Z,99879.22
2023-04-29T05:50:57.973Z,99884.44
2023-04-29T05:55:59.012Z,99884.44
2023-04-29T06:01:02.015Z,99888.44
2023-04-29T06:06:05.383Z,99889.84
2023-04-29T06:11:26.815Z,99900.63
2023-04-29T06:16:29.273Z,99893.59
2023-04-29T06:21:30.293Z,99893.13
2023-04-29T06:26:31.288Z,99900.13
2023-04-29T06:31:33.932Z,99898.34
2023-04-29T06:36:37.671Z,99900.16
2023-04-29T06:41:38.480Z,99903.88
2023-04-29T06:46:50.402Z,99908.81
2023-04-29T06:52:05.772Z,99901.34
2023-04-29T06:57:06.638Z,99904.72
2023-04-29T07:02:08.630Z,99920.72
2023-04-29T07:07:09.861Z,99905.69
2023-04-29T07:12:10.537Z,99917.88
2023-04-29T07:17:14.192Z,99921.09
2023-04-29T07:22:16.099Z,99921.34
2023-04-29T07:27:16.747Z,99920.81
2023-04-29T07:32:18.807Z,99929.03
2023-04-29T07:37:20.005Z,99932.63
2023-04-29T07:42:21.995Z,99940.63
2023-04-29T07:47:24.146Z,99949.63
2023-04-29T07:52:24.921Z,99955.41
2023-04-29T07:57:25.689Z,99966.22
2023-04-29T08:02:28.073Z,99968.69
2023-04-29T08:07:29.509Z,99966.19
2023-04-29T08:12:32.193Z,99971.84
2023-04-29T08:17:36.106Z,99989.19
2023-04-29T08:22:36.828Z,99980.72
2023-04-29T08:27:37.569Z,99978.81
2023-04-29T08:32:39.674Z,99989.56
2023-04-29T08:37:42.508Z,99995.97
2023-04-29T08:42:48.863Z,100001.28
2023-04-29T08:47:52.512Z,100011.47
2023-04-29T08:52:53.286Z,100017.91
2023-04-29T08:57:56.469Z,100009.91
2023-04-29T09:03:00.904Z,100018.63
2023-04-29T09:08:03.786Z,100024.78
2023-04-29T09:13:04.532Z,100032.63
2023-04-29T09:18:06.543Z,100025.81
2023-04-29T09:23:07.246Z,100041.66
2023-04-29T09:28:16.534Z,100047.78
2023-04-29T09:33:18.561Z,100064.56
2023-04-29T09:38:19.385Z,100053.53
2023-04-29T09:43:21.511Z,100061.13
2023-04-29T09:48:23.535Z,100067.03
2023-04-29T09:53:30.410Z,100066.56
2023-04-29T09:58:37.125Z,100064.16
2023-04-29T10:03:40.305Z,100065.03
2023-04-29T10:08:41.992Z,100077.63
2023-04-29T10:13:44.936Z,100080.53
2023-04-29T10:18:53.781Z,100075.41
2023-04-29T10:23:55.966Z,100085.31
2023-04-29T10:28:57.596Z,100084.25
2023-04-29T10:34:01.706Z,100085.13
2023-04-29T10:39:06.352Z,100097.06
2023-04-29T10:44:07.036Z,100091.22
2023-04-29T10:49:09.374Z,100093.69
2023-04-29T10:54:11.715Z,100096.16
2023-04-29T10:59:14.282Z,100097.78
2023-04-29T11:04:17.527Z,100109.56
2023-04-29T11:09:22.515Z,100096.00
2023-04-29T11:14:26.796Z,100100.91
2023-04-29T11:19:33.346Z,100106.00
2023-04-29T11:24:35.653Z,100115.97
2023-04-29T11:29:36.400Z,100133.50
2023-04-29T11:34:38.575Z,100118.75
2023-04-29T11:39:39.357Z,100130.31
2023-04-29T11:44:40.598Z,100134.97
2023-04-29T11:49:42.985Z,100140.13
2023-04-29T11:54:43.721Z,100144.75
2023-04-29T11:59:44.397Z,100140.66
2023-04-29T12:04:49.427Z,100151.00
2023-04-29T12:09:50.246Z,100149.94
2023-04-29T12:14:51.629Z,100148.00
2023-04-29T12:19:53.980Z,100152.31
2023-04-29T12:24:56.020Z,100166.59
2023-04-29T12:29:58.357Z,100186.69
2023-04-29T12:35:00.352Z,100203.69
2023-04-29T12:40:00.999Z,100227.44
2023-04-29T12:45:01.685Z,100215.94
2023-04-29T12:50:03.949Z,100214.59
2023-04-29T12:55:06.571Z,100222.28
2023-04-29T13:00:09.275Z,100227.47
2023-04-29T13:05:12.854Z,100233.09
2023-04-29T13:10:14.279Z,100232.47
2023-04-29T13:15:15.727Z,100240.81
2023-04-29T13:20:17.811Z,100237.66
2023-04-29T13:25:18.484Z,100260.53
2023-04-29T13:30:19.274Z,100259.44
2023-04-29T13:35:21.332Z,100273.13
2023-04-29T13:40:22.272Z,100286.50
2023-04-29T13:45:22.950Z,100289.47
2023-04-29T13:51:09.637Z,100300.28
2023-04-29T14:05:54.765Z,100292.00
2023-04-29T14:10:55.485Z,100298.72
2023-04-29T14:15:56.690Z,100310.09
2023-04-29T14:20:59.623Z,100313.16
2023-04-29T14:26:11.628Z,100321.91
2023-04-29T14:31:21.093Z,100323.66
2023-04-29T14:36:23.249Z,100329.72
2023-04-29T14:41:23.926Z,100330.59
2023-04-29T14:46:25.258Z,100332.22
2023-04-29T14:51:28.390Z,100332.78
2023-04-29T14:56:29.091Z,100336.00
2023-04-29T15:01:32.089Z,100336.69
2023-04-29T15:06:35.266Z,100333.78
2023-04-29T15:11:36.129Z,100349.34
2023-04-29T15:16:37.270Z,100352.84
2023-04-29T15:21:39.355Z,100348.50
2023-04-29T15:26:40.236Z,100349.97
2023-04-29T15:31:41.141Z,100357.75
2023-04-29T15:36:43.314Z,100354.69
2023-04-29T15:41:44.041Z,100364.06
2023-04-29T15:46:44.764Z,100368.47
2023-04-29T15:51:46.807Z,100378.53
2023-04-29T15:56:47.532Z,100371.75
2023-04-29T16:01:48.360Z,100379.03
2023-04-29T16:06:51.110Z,100375.47
2023-04-29T16:11:53.661Z,100379.91
2023-04-29T16:16:54.626Z,100387.78
2023-04-29T16:21:56.752Z,100391.88
2023-04-29T16:26:58.932Z,100395.34
2023-04-29T16:31:59.801Z,100397.91
2023-04-29T16:37:01.919Z,100393.81
2023-04-29T16:42:02.688Z,100404.19
2023-04-29T16:47:03.543Z,100402.50
2023-04-29T16:52:06.492Z,100407.47
2023-04-29T16:57:07.263Z,100416.94
2023-04-29T17:02:08.015Z,100424.72
2023-04-29T17:07:10.624Z,100420.44
2023-04-29T17:12:11.818Z,100428.19
2023-04-29T17:17:12.443Z,100439.47
2023-04-29T17:22:14.431Z,100443.03
2023-04-29T17:27:15.605Z,100444.13
2023-04-29T17:32:17.528Z,100453.66
2023-04-29T17:37:24.889Z,100463.31
2023-04-29T17:42:25.702Z,100470.28
2023-04-29T17:47:26.475Z,100470.41
2023-04-29T17:52:29.196Z,100476.56
2023-04-29T17:57:29.929Z,100477.59
2023-04-29T18:02:33.566Z,100491.47
2023-04-29T18:07:35.720Z,100493.22
2023-04-29T18:12:36.420Z,100499.44
2023-04-29T18:17:37.129Z,100502.22
2023-04-29T18:22:39.469Z,100502.09
2023-04-29T18:27:40.239Z,100505.69
2023-04-29T18:32:41.268Z,100513.69
2023-04-29T18:37:43.414Z,100509.19
2023-04-29T18:42:45.222Z,100524.81
2023-04-29T18:47:45.942Z,100533.63
2023-04-29T18:52:47.956Z,100543.13
2023-04-29T18:57:48.656Z,100548.31
2023-04-29T19:02:49.449Z,100555.25
2023-04-29T19:07:51.521Z,100567.50
2023-04-29T19:12:52.241Z,100564.88
2023-04-29T19:17:52.979Z,100571.03
2023-04-29T19:22:55.143Z,100578.88
2023-04-29T19:27:55.962Z,100590.28
2023-04-29T19:32:56.725Z,100594.66
2023-04-29T19:37:58.992Z,100599.19
2023-04-29T19:42:59.782Z,100609.56
2023-04-29T19:48:02.189Z,100606.06
2023-04-29T19:53:04.294Z,100611.31
2023-04-29T19:58:04.984Z,100610.38
2023-04-29T20:03:05.982Z,100608.69
2023-04-29T20:08:08.333Z,100607.88
2023-04-29T20:13:09.064Z,100615.66
2023-04-29T20:18:09.847Z,100618.25
2023-04-29T20:23:12.159Z,100606.88
2023-04-29T20:28:13.274Z,100622.66
2023-04-29T20:33:13.986Z,100623.44
2023-04-29T20:38:16.085Z,100624.44
2023-04-29T20:43:17.319Z,100627.16
2023-04-29T20:48:18.043Z,100625.41
2023-04-29T20:53:20.234Z,100629.78
2023-04-29T20:58:20.954Z,100631.47
2023-04-29T21:03:22.338Z,100623.66
2023-04-29T21:08:24.351Z,100624.56
2023-04-29T21:13:25.032Z,100630.59
2023-04-29T21:18:26.199Z,100633.41
2023-04-29T21:23:28.263Z,100633.41
2023-04-29T21:28:28.990Z,100629.53
2023-04-29T21:33:29.832Z,100627.97
2023-04-29T21:38:31.797Z,100640.28
2023-04-29T21:43:33.178Z,100642.06
2023-04-29T21:48:33.956Z,100640.38
2023-04-29T21:53:37.222Z,100644.00
2023-04-29T21:58:37.916Z,100638.91
2023-04-29T22:03:38.793Z,100649.25
2023-04-29T22:08:40.814Z,100643.22
2023-04-29T22:13:41.968Z,100649.31
2023-04-29T22:18:42.717Z,100656.47
2023-04-29T22:23:44.883Z,100652.94
2023-04-29T22:28:45.569Z,100661.72
2023-04-29T22:33:46.323Z,100660.03
2023-04-29T22:38:48.873Z,100666.28
2023-04-29T22:43:49.536Z,100669.66
2023-04-29T22:48:50.280Z,100665.34
2023-04-29T22:53:52.273Z,100671.53
2023-04-29T22:58:52.964Z,100667.09
2023-04-29T23:03:53.654Z,100663.69
2023-04-29T23:08:55.676Z,100672.47
2023-04-29T23:13:56.319Z,100671.69
2023-04-29T23:18:56.990Z,100673.38
2023-04-29T23:23:58.991Z,100675.03
2023-04-29T23:29:00.030Z,100675.88
2023-04-29T23:34:00.844Z,100674.38
2023-04-29T23:39:02.856Z,100671.63
2023-04-29T23:44:03.942Z,100673.44
2023-04-29T23:49:04.605Z,100672.53
2023-04-29T23:54:06.777Z,100673.41
2023-04-29T23:59:07.480Z,100670.16
